sensor_id;sensor_type;location;lat;lon;timestamp;pressure;altitude;pressure_sealevel;temperature;humidity
71621;BME280;59471;42.254;23.102;2023-02-13T00:00:15;97650.97;;;-1.50;82.47
71621;BME280;59471;42.254;23.102;2023-02-13T00:02:43;97661.91;;;-1.67;83.64
71621;BME280;59471;42.254;23.102;2023-02-13T00:05:08;97663.44;;;-1.63;83.77
71621;BME280;59471;42.254;23.102;2023-02-13T00:07:34;97663.34;;;-1.59;83.08
71621;BME280;59471;42.254;23.102;2023-02-13T00:10:00;97664.91;;;-1.79;83.44
71621;BME280;59471;42.254;23.102;2023-02-13T00:12:25;97666.59;;;-1.54;83.30
71621;BME280;59471;42.254;23.102;2023-02-13T00:14:51;97670.16;;;-1.36;82.34
71621;BME280;59471;42.254;23.102;2023-02-13T00:17:16;97667.25;;;-1.73;83.74
71621;BME280;59471;42.254;23.102;2023-02-13T00:19:42;97665.44;;;-1.47;83.30
71621;BME280;59471;42.254;23.102;2023-02-13T00:22:07;97671.84;;;-1.57;83.76
71621;BME280;59471;42.254;23.102;2023-02-13T00:24:34;97663.25;;;-1.34;82.85
71621;BME280;59471;42.254;23.102;2023-02-13T00:26:59;97664.97;;;-1.35;82.41
71621;BME280;59471;42.254;23.102;2023-02-13T00:29:25;97660.00;;;-1.40;81.93
71621;BME280;59471;42.254;23.102;2023-02-13T00:31:50;97662.09;;;-1.27;81.74
71621;BME280;59471;42.254;23.102;2023-02-13T00:34:16;97670.75;;;-1.52;82.17
71621;BME280;59471;42.254;23.102;2023-02-13T00:36:41;97666.59;;;-1.54;82.23
71621;BME280;59471;42.254;23.102;2023-02-13T00:39:10;97663.53;;;-1.42;82.08
71621;BME280;59471;42.254;23.102;2023-02-13T00:41:36;97666.03;;;-1.41;81.79
71621;BME280;59471;42.254;23.102;2023-02-13T00:44:02;97661.56;;;-1.57;81.77
71621;BME280;59471;42.254;23.102;2023-02-13T00:46:28;97660.22;;;-1.91;83.25
71621;BME280;59471;42.254;23.102;2023-02-13T00:48:53;97663.47;;;-2.10;84.93
71621;BME280;59471;42.254;23.102;2023-02-13T00:51:19;97662.81;;;-1.91;84.06
71621;BME280;59471;42.254;23.102;2023-02-13T00:53:44;97665.91;;;-1.83;83.60
71621;BME280;59471;42.254;23.102;2023-02-13T00:56:10;97664.34;;;-1.87;83.06
71621;BME280;59471;42.254;23.102;2023-02-13T00:58:36;97670.16;;;-2.05;83.20
71621;BME280;59471;42.254;23.102;2023-02-13T01:01:02;97668.25;;;-2.00;82.44
71621;BME280;59471;42.254;23.102;2023-02-13T01:03:27;97672.91;;;-2.35;84.38
71621;BME280;59471;42.254;23.102;2023-02-13T01:05:55;97676.63;;;-2.19;83.63
71621;BME280;59471;42.254;23.102;2023-02-13T01:08:21;97671.94;;;-2.07;83.79
71621;BME280;59471;42.254;23.102;2023-02-13T01:10:47;97686.38;;;-2.53;83.50
71621;BME280;59471;42.254;23.102;2023-02-13T01:13:14;97683.66;;;-2.75;84.96
71621;BME280;59471;42.254;23.102;2023-02-13T01:15:43;97684.13;;;-2.89;85.48
71621;BME280;59471;42.254;23.102;2023-02-13T01:18:11;97682.44;;;-2.64;85.01
71621;BME280;59471;42.254;23.102;2023-02-13T01:20:39;97681.59;;;-2.64;85.34
71621;BME280;59471;42.254;23.102;2023-02-13T01:23:05;97694.09;;;-2.80;85.87
71621;BME280;59471;42.254;23.102;2023-02-13T01:25:31;97694.19;;;-2.83;85.65
71621;BME280;59471;42.254;23.102;2023-02-13T01:27:57;97693.78;;;-2.97;86.14
71621;BME280;59471;42.254;23.102;2023-02-13T01:30:22;97696.66;;;-2.80;85.45
71621;BME280;59471;42.254;23.102;2023-02-13T01:32:48;97696.25;;;-2.68;85.18
71621;BME280;59471;42.254;23.102;2023-02-13T01:35:14;97700.28;;;-2.87;85.36
71621;BME280;59471;42.254;23.102;2023-02-13T01:37:40;97691.25;;;-2.46;86.81
71621;BME280;59471;42.254;23.102;2023-02-13T01:40:09;97694.25;;;-2.33;86.89
71621;BME280;59471;42.254;23.102;2023-02-13T01:42:37;97691.78;;;-2.36;84.38
71621;BME280;59471;42.254;23.102;2023-02-13T01:45:20;97698.38;;;-2.56;84.57
71621;BME280;59471;42.254;23.102;2023-02-13T01:48:02;97696.56;;;-2.77;85.92
71621;BME280;59471;42.254;23.102;2023-02-13T01:50:43;97702.75;;;-2.58;85.77
71621;BME280;59471;42.254;23.102;2023-02-13T01:53:33;97703.34;;;-2.76;85.75
71621;BME280;59471;42.254;23.102;2023-02-13T01:56:28;97694.16;;;-2.57;84.64
71621;BME280;59471;42.254;23.102;2023-02-13T01:59:02;97697.63;;;-2.58;84.54
71621;BME280;59471;42.254;23.102;2023-02-13T02:01:30;97705.25;;;-3.09;86.51
71621;BME280;59471;42.254;23.102;2023-02-13T02:04:02;97706.47;;;-3.21;87.18
71621;BME280;59471;42.254;23.102;2023-02-13T02:06:36;97697.88;;;-3.18;86.45
71621;BME280;59471;42.254;23.102;2023-02-13T02:09:10;97707.97;;;-3.14;87.80
71621;BME280;59471;42.254;23.102;2023-02-13T02:15:04;97716.28;;;-3.06;87.05
71621;BME280;59471;42.254;23.102;2023-02-13T02:17:31;97713.34;;;-2.95;86.42
71621;BME280;59471;42.254;23.102;2023-02-13T02:20:12;97712.06;;;-3.08;86.51
71621;BME280;59471;42.254;23.102;2023-02-13T02:22:58;97717.16;;;-2.80;86.54
71621;BME280;59471;42.254;23.102;2023-02-13T02:29:10;97724.63;;;-3.00;86.12
71621;BME280;59471;42.254;23.102;2023-02-13T02:40:57;97737.75;;;-2.57;83.68
71621;BME280;59471;42.254;23.102;2023-02-13T02:43:47;97743.78;;;-2.58;84.14
71621;BME280;59471;42.254;23.102;2023-02-13T02:49:16;97747.34;;;-2.62;85.44
71621;BME280;59471;42.254;23.102;2023-02-13T02:52:07;97754.69;;;-2.51;86.39
71621;BME280;59471;42.254;23.102;2023-02-13T02:54:52;97749.00;;;-2.34;86.63
71621;BME280;59471;42.254;23.102;2023-02-13T02:57:33;97734.41;;;-2.32;87.13
71621;BME280;59471;42.254;23.102;2023-02-13T03:00:41;97741.91;;;-2.27;87.44
71621;BME280;59471;42.254;23.102;2023-02-13T03:03:27;97737.09;;;-2.37;87.84
71621;BME280;59471;42.254;23.102;2023-02-13T03:06:20;97733.38;;;-2.28;87.56
71621;BME280;59471;42.254;23.102;2023-02-13T03:08:58;97737.84;;;-2.33;87.27
71621;BME280;59471;42.254;23.102;2023-02-13T03:11:48;97751.09;;;-2.45;87.57
71621;BME280;59471;42.254;23.102;2023-02-13T03:14:34;97750.09;;;-2.41;87.98
71621;BME280;59471;42.254;23.102;2023-02-13T03:17:01;97742.03;;;-2.30;87.02
71621;BME280;59471;42.254;23.102;2023-02-13T03:20:11;97753.50;;;-2.16;85.71
71621;BME280;59471;42.254;23.102;2023-02-13T03:23:06;97750.34;;;-2.24;85.49
71621;BME280;59471;42.254;23.102;2023-02-13T03:28:40;97754.91;;;-2.59;85.95
71621;BME280;59471;42.254;23.102;2023-02-13T03:31:34;97756.25;;;-2.47;85.58
71621;BME280;59471;42.254;23.102;2023-02-13T03:34:06;97769.09;;;-2.73;86.41
71621;BME280;59471;42.254;23.102;2023-02-13T03:40:11;97767.75;;;-2.59;85.69
71621;BME280;59471;42.254;23.102;2023-02-13T03:45:38;97769.25;;;-2.51;86.16
71621;BME280;59471;42.254;23.102;2023-02-13T03:48:24;97775.16;;;-2.76;86.37
71621;BME280;59471;42.254;23.102;2023-02-13T03:51:15;97763.78;;;-2.95;86.94
71621;BME280;59471;42.254;23.102;2023-02-13T03:53:45;97765.56;;;-2.97;87.80
71621;BME280;59471;42.254;23.102;2023-02-13T03:56:18;97765.19;;;-2.85;87.33
71621;BME280;59471;42.254;23.102;2023-02-13T03:59:04;97773.00;;;-2.62;86.82
71621;BME280;59471;42.254;23.102;2023-02-13T04:01:53;97775.44;;;-2.59;86.31
71621;BME280;59471;42.254;23.102;2023-02-13T04:04:32;97781.19;;;-2.50;84.77
71621;BME280;59471;42.254;23.102;2023-02-13T04:07:17;97784.31;;;-2.69;84.47
71621;BME280;59471;42.254;23.102;2023-02-13T04:10:23;97789.72;;;-2.78;84.11
71621;BME280;59471;42.254;23.102;2023-02-13T04:12:52;97784.47;;;-3.01;84.39
71621;BME280;59471;42.254;23.102;2023-02-13T04:15:37;97787.13;;;-3.34;84.63
71621;BME280;59471;42.254;23.102;2023-02-13T04:20:37;97787.69;;;-3.53;85.30
71621;BME280;59471;42.254;23.102;2023-02-13T04:23:06;97787.91;;;-3.31;85.42
71621;BME280;59471;42.254;23.102;2023-02-13T04:25:35;97788.75;;;-3.30;83.34
71621;BME280;59471;42.254;23.102;2023-02-13T04:28:02;97776.25;;;-3.13;83.65
71621;BME280;59471;42.254;23.102;2023-02-13T04:30:28;97778.97;;;-3.17;83.95
71621;BME280;59471;42.254;23.102;2023-02-13T04:32:54;97774.22;;;-3.01;83.12
71621;BME280;59471;42.254;23.102;2023-02-13T04:35:20;97775.59;;;-3.18;84.16
71621;BME280;59471;42.254;23.102;2023-02-13T04:37:45;97781.47;;;-3.16;83.98
71621;BME280;59471;42.254;23.102;2023-02-13T04:40:11;97779.53;;;-3.08;83.68
71621;BME280;59471;42.254;23.102;2023-02-13T04:42:36;97779.91;;;-3.50;84.95
71621;BME280;59471;42.254;23.102;2023-02-13T04:45:02;97772.31;;;-3.53;85.46
71621;BME280;59471;42.254;23.102;2023-02-13T04:47:28;97787.81;;;-3.28;85.08
71621;BME280;59471;42.254;23.102;2023-02-13T04:49:53;97791.03;;;-3.51;85.95
71621;BME280;59471;42.254;23.102;2023-02-13T04:52:19;97784.81;;;-3.42;86.40
71621;BME280;59471;42.254;23.102;2023-02-13T04:54:44;97790.28;;;-3.54;85.60
71621;BME280;59471;42.254;23.102;2023-02-13T04:57:10;97794.38;;;-3.48;85.28
71621;BME280;59471;42.254;23.102;2023-02-13T04:59:35;97794.22;;;-3.42;85.14
71621;BME280;59471;42.254;23.102;2023-02-13T05:02:01;97804.22;;;-3.33;85.26
71621;BME280;59471;42.254;23.102;2023-02-13T05:04:26;97808.03;;;-3.48;85.19
71621;BME280;59471;42.254;23.102;2023-02-13T05:06:53;97815.53;;;-3.73;85.85
71621;BME280;59471;42.254;23.102;2023-02-13T05:09:19;97811.50;;;-3.82;86.55
71621;BME280;59471;42.254;23.102;2023-02-13T05:11:44;97810.19;;;-3.64;86.32
71621;BME280;59471;42.254;23.102;2023-02-13T05:14:10;97804.28;;;-3.36;85.51
71621;BME280;59471;42.254;23.102;2023-02-13T05:16:36;97799.16;;;-3.36;84.83
71621;BME280;59471;42.254;23.102;2023-02-13T05:19:02;97799.09;;;-3.35;83.92
71621;BME280;59471;42.254;23.102;2023-02-13T05:21:28;97794.00;;;-3.35;83.91
71621;BME280;59471;42.254;23.102;2023-02-13T05:24:12;97800.53;;;-3.54;84.63
71621;BME280;59471;42.254;23.102;2023-02-13T05:26:37;97797.84;;;-3.50;85.19
71621;BME280;59471;42.254;23.102;2023-02-13T05:29:03;97814.00;;;-3.47;85.01
71621;BME280;59471;42.254;23.102;2023-02-13T05:31:49;97804.75;;;-3.53;85.02
71621;BME280;59471;42.254;23.102;2023-02-13T05:34:16;97807.69;;;-3.65;84.77
71621;BME280;59471;42.254;23.102;2023-02-13T05:36:42;97802.72;;;-3.40;83.76
71621;BME280;59471;42.254;23.102;2023-02-13T05:39:07;97815.47;;;-3.70;83.60
71621;BME280;59471;42.254;23.102;2023-02-13T05:41:33;97816.00;;;-3.90;84.51
71621;BME280;59471;42.254;23.102;2023-02-13T05:43:59;97812.69;;;-3.93;84.65
71621;BME280;59471;42.254;23.102;2023-02-13T05:46:24;97823.88;;;-3.65;84.36
71621;BME280;59471;42.254;23.102;2023-02-13T05:48:50;97834.28;;;-3.71;83.95
71621;BME280;59471;42.254;23.102;2023-02-13T05:51:17;97845.13;;;-3.61;84.08
71621;BME280;59471;42.254;23.102;2023-02-13T05:53:43;97840.75;;;-3.58;83.33
71621;BME280;59471;42.254;23.102;2023-02-13T05:56:09;97845.06;;;-3.60;83.32
71621;BME280;59471;42.254;23.102;2023-02-13T05:58:35;97844.16;;;-3.90;84.22
71621;BME280;59471;42.254;23.102;2023-02-13T06:01:01;97841.78;;;-3.98;85.27
71621;BME280;59471;42.254;23.102;2023-02-13T06:03:27;97847.41;;;-4.17;85.89
71621;BME280;59471;42.254;23.102;2023-02-13T06:05:54;97850.72;;;-3.80;85.95
71621;BME280;59471;42.254;23.102;2023-02-13T06:08:21;97847.19;;;-3.44;83.60
71621;BME280;59471;42.254;23.102;2023-02-13T06:10:48;97848.13;;;-3.47;83.83
71621;BME280;59471;42.254;23.102;2023-02-13T06:13:14;97847.19;;;-3.44;83.70
71621;BME280;59471;42.254;23.102;2023-02-13T06:15:40;97851.25;;;-3.36;83.53
71621;BME280;59471;42.254;23.102;2023-02-13T06:18:06;97855.09;;;-3.21;83.08
71621;BME280;59471;42.254;23.102;2023-02-13T06:20:32;97853.97;;;-3.11;82.71
71621;BME280;59471;42.254;23.102;2023-02-13T06:22:58;97854.94;;;-3.15;83.06
71621;BME280;59471;42.254;23.102;2023-02-13T06:25:23;97860.63;;;-3.05;83.25
71621;BME280;59471;42.254;23.102;2023-02-13T06:27:49;97870.38;;;-2.88;82.75
71621;BME280;59471;42.254;23.102;2023-02-13T06:30:15;97865.63;;;-2.71;82.13
71621;BME280;59471;42.254;23.102;2023-02-13T06:32:42;97872.78;;;-3.12;83.01
71621;BME280;59471;42.254;23.102;2023-02-13T06:35:08;97867.69;;;-3.44;85.51
71621;BME280;59471;42.254;23.102;2023-02-13T06:37:34;97875.19;;;-3.06;83.49
71621;BME280;59471;42.254;23.102;2023-02-13T06:40:00;97868.25;;;-3.04;84.70
71621;BME280;59471;42.254;23.102;2023-02-13T06:42:25;97864.47;;;-2.90;83.79
71621;BME280;59471;42.254;23.102;2023-02-13T06:44:51;97854.28;;;-2.93;83.91
71621;BME280;59471;42.254;23.102;2023-02-13T06:47:16;97854.59;;;-3.03;84.75
71621;BME280;59471;42.254;23.102;2023-02-13T06:49:42;97864.22;;;-3.11;84.70
71621;BME280;59471;42.254;23.102;2023-02-13T06:52:08;97859.88;;;-3.09;84.87
71621;BME280;59471;42.254;23.102;2023-02-13T06:54:33;97860.41;;;-3.27;86.08
71621;BME280;59471;42.254;23.102;2023-02-13T06:56:59;97856.50;;;-2.81;84.77
71621;BME280;59471;42.254;23.102;2023-02-13T06:59:24;97860.06;;;-2.57;83.99
71621;BME280;59471;42.254;23.102;2023-02-13T07:01:50;97861.06;;;-2.35;83.12
71621;BME280;59471;42.254;23.102;2023-02-13T07:04:15;97861.03;;;-2.33;83.37
71621;BME280;59471;42.254;23.102;2023-02-13T07:06:41;97869.41;;;-2.56;83.14
71621;BME280;59471;42.254;23.102;2023-02-13T07:09:06;97872.50;;;-2.73;84.02
71621;BME280;59471;42.254;23.102;2023-02-13T07:11:32;97867.56;;;-2.79;85.64
71621;BME280;59471;42.254;23.102;2023-02-13T07:13:57;97863.47;;;-2.57;84.60
71621;BME280;59471;42.254;23.102;2023-02-13T07:16:23;97872.28;;;-2.11;84.47
71621;BME280;59471;42.254;23.102;2023-02-13T07:18:49;97877.91;;;-1.99;82.91
71621;BME280;59471;42.254;23.102;2023-02-13T07:21:14;97882.69;;;-1.89;82.30
71621;BME280;59471;42.254;23.102;2023-02-13T07:23:40;97880.81;;;-1.83;83.29
71621;BME280;59471;42.254;23.102;2023-02-13T07:26:05;97880.25;;;-1.67;83.24
71621;BME280;59471;42.254;23.102;2023-02-13T07:28:31;97884.63;;;-1.45;82.67
71621;BME280;59471;42.254;23.102;2023-02-13T07:30:57;97880.41;;;-1.46;82.59
71621;BME280;59471;42.254;23.102;2023-02-13T07:33:29;97883.34;;;-1.32;81.17
71621;BME280;59471;42.254;23.102;2023-02-13T07:35:54;97878.72;;;-1.47;82.35
71621;BME280;59471;42.254;23.102;2023-02-13T07:38:20;97877.41;;;-1.10;82.51
71621;BME280;59471;42.254;23.102;2023-02-13T07:40:45;97879.09;;;-0.86;81.62
71621;BME280;59471;42.254;23.102;2023-02-13T07:43:12;97875.94;;;-0.71;81.08
71621;BME280;59471;42.254;23.102;2023-02-13T07:45:37;97880.19;;;-0.70;81.27
71621;BME280;59471;42.254;23.102;2023-02-13T07:48:03;97877.16;;;-0.57;80.93
71621;BME280;59471;42.254;23.102;2023-02-13T07:50:29;97875.03;;;-0.70;81.24
71621;BME280;59471;42.254;23.102;2023-02-13T07:52:59;97871.66;;;-0.48;79.65
71621;BME280;59471;42.254;23.102;2023-02-13T07:55:29;97863.41;;;-0.56;79.89
71621;BME280;59471;42.254;23.102;2023-02-13T07:57:55;97858.16;;;-0.53;79.98
71621;BME280;59471;42.254;23.102;2023-02-13T08:00:21;97860.16;;;-0.61;79.71
71621;BME280;59471;42.254;23.102;2023-02-13T08:02:47;97864.53;;;-0.41;80.01
71621;BME280;59471;42.254;23.102;2023-02-13T08:05:13;97856.34;;;-0.51;80.75
71621;BME280;59471;42.254;23.102;2023-02-13T08:07:39;97859.47;;;-0.43;80.24
71621;BME280;59471;42.254;23.102;2023-02-13T08:10:10;97856.44;;;-0.54;80.48
71621;BME280;59471;42.254;23.102;2023-02-13T08:12:56;97850.44;;;-0.53;80.94
71621;BME280;59471;42.254;23.102;2023-02-13T08:15:21;97863.88;;;-0.47;80.81
71621;BME280;59471;42.254;23.102;2023-02-13T08:17:48;97855.56;;;-0.31;79.83
71621;BME280;59471;42.254;23.102;2023-02-13T08:20:13;97852.72;;;-0.03;79.50
71621;BME280;59471;42.254;23.102;2023-02-13T08:22:39;97866.00;;;0.08;79.12
71621;BME280;59471;42.254;23.102;2023-02-13T08:25:05;97856.22;;;0.16;78.12
71621;BME280;59471;42.254;23.102;2023-02-13T08:27:31;97865.50;;;0.20;78.19
71621;BME280;59471;42.254;23.102;2023-02-13T08:29:58;97861.09;;;0.43;78.34
71621;BME280;59471;42.254;23.102;2023-02-13T08:32:24;97855.81;;;0.46;76.64
71621;BME280;59471;42.254;23.102;2023-02-13T08:34:50;97846.94;;;0.33;77.47
71621;BME280;59471;42.254;23.102;2023-02-13T08:37:16;97860.84;;;0.49;78.23
71621;BME280;59471;42.254;23.102;2023-02-13T08:39:43;97842.28;;;0.61;78.15
71621;BME280;59471;42.254;23.102;2023-02-13T08:42:08;97844.88;;;0.80;76.18
71621;BME280;59471;42.254;23.102;2023-02-13T08:44:34;97847.50;;;0.79;76.97
71621;BME280;59471;42.254;23.102;2023-02-13T08:47:00;97840.09;;;1.10;76.42
71621;BME280;59471;42.254;23.102;2023-02-13T08:49:29;97839.19;;;1.30;75.80
71621;BME280;59471;42.254;23.102;2023-02-13T08:51:54;97839.59;;;1.40;74.56
71621;BME280;59471;42.254;23.102;2023-02-13T08:54:20;97843.09;;;1.39;73.84
71621;BME280;59471;42.254;23.102;2023-02-13T08:56:46;97839.63;;;1.57;73.48
71621;BME280;59471;42.254;23.102;2023-02-13T08:59:11;97839.13;;;1.68;73.20
71621;BME280;59471;42.254;23.102;2023-02-13T09:01:37;97837.97;;;1.56;72.75
71621;BME280;59471;42.254;23.102;2023-02-13T09:04:02;97838.00;;;1.74;72.82
71621;BME280;59471;42.254;23.102;2023-02-13T09:06:28;97848.78;;;1.82;72.66
71621;BME280;59471;42.254;23.102;2023-02-13T09:08:54;97832.13;;;1.70;72.69
71621;BME280;59471;42.254;23.102;2023-02-13T09:11:19;97830.56;;;1.85;73.12
71621;BME280;59471;42.254;23.102;2023-02-13T09:13:48;97830.94;;;1.41;73.00
71621;BME280;59471;42.254;23.102;2023-02-13T09:16:14;97838.25;;;1.31;73.57
71621;BME280;59471;42.254;23.102;2023-02-13T09:18:40;97835.38;;;1.20;74.27
71621;BME280;59471;42.254;23.102;2023-02-13T09:21:09;97831.59;;;1.08;75.20
71621;BME280;59471;42.254;23.102;2023-02-13T09:23:38;97832.75;;;1.39;73.81
71621;BME280;59471;42.254;23.102;2023-02-13T09:26:08;97832.75;;;1.39;74.11
71621;BME280;59471;42.254;23.102;2023-02-13T09:28:35;97831.41;;;1.49;73.65
71621;BME280;59471;42.254;23.102;2023-02-13T09:31:06;97836.50;;;1.87;73.36
71621;BME280;59471;42.254;23.102;2023-02-13T09:33:36;97831.63;;;1.98;72.14
71621;BME280;59471;42.254;23.102;2023-02-13T09:36:04;97831.19;;;1.90;72.06
71621;BME280;59471;42.254;23.102;2023-02-13T09:38:30;97831.31;;;2.04;70.99
71621;BME280;59471;42.254;23.102;2023-02-13T09:41:01;97828.03;;;1.66;71.45
71621;BME280;59471;42.254;23.102;2023-02-13T09:43:36;97826.31;;;1.84;70.57
71621;BME280;59471;42.254;23.102;2023-02-13T09:46:18;97827.16;;;2.02;70.41
71621;BME280;59471;42.254;23.102;2023-02-13T09:48:50;97822.69;;;2.05;70.79
71621;BME280;59471;42.254;23.102;2023-02-13T09:51:19;97823.94;;;2.14;70.33
71621;BME280;59471;42.254;23.102;2023-02-13T09:53:58;97817.34;;;2.43;69.55
71621;BME280;59471;42.254;23.102;2023-02-13T09:56:54;97809.06;;;2.70;70.44
71621;BME280;59471;42.254;23.102;2023-02-13T10:08:48;97792.63;;;3.02;68.75
71621;BME280;59471;42.254;23.102;2023-02-13T10:17:42;97771.53;;;3.26;68.39
71621;BME280;59471;42.254;23.102;2023-02-13T10:20:33;97779.09;;;3.61;66.06
71621;BME280;59471;42.254;23.102;2023-02-13T10:23:53;97763.84;;;3.09;66.41
71621;BME280;59471;42.254;23.102;2023-02-13T10:26:25;97762.84;;;3.11;67.69
71621;BME280;59471;42.254;23.102;2023-02-13T10:29:13;97757.81;;;3.24;68.91
71621;BME280;59471;42.254;23.102;2023-02-13T10:32:11;97751.97;;;3.36;68.32
71621;BME280;59471;42.254;23.102;2023-02-13T10:34:43;97739.25;;;3.47;67.47
71621;BME280;59471;42.254;23.102;2023-02-13T10:37:19;97742.56;;;3.49;66.63
71621;BME280;59471;42.254;23.102;2023-02-13T10:39:48;97727.69;;;3.69;65.49
71621;BME280;59471;42.254;23.102;2023-02-13T10:42:19;97727.00;;;3.65;67.49
71621;BME280;59471;42.254;23.102;2023-02-13T10:53:52;97711.81;;;4.18;64.92
71621;BME280;59471;42.254;23.102;2023-02-13T11:02:30;97685.53;;;4.38;64.28
71621;BME280;59471;42.254;23.102;2023-02-13T11:07:46;97686.50;;;4.64;63.76
71621;BME280;59471;42.254;23.102;2023-02-13T11:10:20;97676.06;;;4.52;63.22
71621;BME280;59471;42.254;23.102;2023-02-13T11:12:47;97687.91;;;4.56;63.70
71621;BME280;59471;42.254;23.102;2023-02-13T11:15:29;97678.63;;;4.66;62.18
71621;BME280;59471;42.254;23.102;2023-02-13T11:18:17;97678.84;;;4.49;62.64
71621;BME280;59471;42.254;23.102;2023-02-13T11:20:44;97676.06;;;4.52;64.12
71621;BME280;59471;42.254;23.102;2023-02-13T11:28:36;97658.13;;;5.03;60.91
71621;BME280;59471;42.254;23.102;2023-02-13T11:31:13;97661.81;;;5.13;60.20
71621;BME280;59471;42.254;23.102;2023-02-13T11:33:46;97643.22;;;5.19;61.26
71621;BME280;59471;42.254;23.102;2023-02-13T11:36:15;97648.41;;;5.19;61.46
71621;BME280;59471;42.254;23.102;2023-02-13T11:38:42;97641.19;;;5.24;60.92
71621;BME280;59471;42.254;23.102;2023-02-13T11:41:13;97641.94;;;5.39;59.17
71621;BME280;59471;42.254;23.102;2023-02-13T11:46:30;97635.16;;;5.24;60.49
71621;BME280;59471;42.254;23.102;2023-02-13T11:49:29;97632.56;;;5.24;60.44
71621;BME280;59471;42.254;23.102;2023-02-13T11:51:59;97624.69;;;5.51;61.07
71621;BME280;59471;42.254;23.102;2023-02-13T11:54:43;97614.22;;;5.78;59.85
71621;BME280;59471;42.254;23.102;2023-02-13T11:57:36;97610.50;;;5.95;58.54
71621;BME280;59471;42.254;23.102;2023-02-13T12:00:29;97604.59;;;5.93;58.90
71621;BME280;59471;42.254;23.102;2023-02-13T12:03:22;97589.69;;;5.95;58.68
71621;BME280;59471;42.254;23.102;2023-02-13T12:06:01;97583.97;;;6.15;57.99
71621;BME280;59471;42.254;23.102;2023-02-13T12:08:28;97580.19;;;6.19;56.94
71621;BME280;59471;42.254;23.102;2023-02-13T12:10:56;97582.00;;;6.43;57.61
71621;BME280;59471;42.254;23.102;2023-02-13T12:13:34;97578.59;;;6.66;57.69
71621;BME280;59471;42.254;23.102;2023-02-13T12:16:09;97570.28;;;6.61;55.73
71621;BME280;59471;42.254;23.102;2023-02-13T12:18:48;97566.81;;;6.37;55.17
71621;BME280;59471;42.254;23.102;2023-02-13T12:21:39;97557.47;;;6.34;56.78
71621;BME280;59471;42.254;23.102;2023-02-13T12:27:04;97553.09;;;6.35;55.52
71621;BME280;59471;42.254;23.102;2023-02-13T12:32:49;97536.81;;;6.92;55.01
71621;BME280;59471;42.254;23.102;2023-02-13T12:41:06;97536.22;;;6.64;52.93
71621;BME280;59471;42.254;23.102;2023-02-13T12:44:46;97527.91;;;6.35;53.80
71621;BME280;59471;42.254;23.102;2023-02-13T12:47:07;97530.03;;;6.78;54.32
71621;BME280;59471;42.254;23.102;2023-02-13T12:56:05;97526.56;;;6.78;51.49
71621;BME280;59471;42.254;23.102;2023-02-13T13:04:41;97511.00;;;6.89;52.43
71621;BME280;59471;42.254;23.102;2023-02-13T13:28:58;97478.97;;;7.11;48.52
71621;BME280;59471;42.254;23.102;2023-02-13T13:31:26;97480.50;;;7.25;48.21
71621;BME280;59471;42.254;23.102;2023-02-13T13:33:54;97481.25;;;7.38;47.21
71621;BME280;59471;42.254;23.102;2023-02-13T13:36:45;97479.78;;;7.11;46.37
71621;BME280;59471;42.254;23.102;2023-02-13T13:39:23;97482.78;;;7.29;46.52
71621;BME280;59471;42.254;23.102;2023-02-13T13:42:10;97468.94;;;7.62;46.61
71621;BME280;59471;42.254;23.102;2023-02-13T13:47:32;97468.31;;;7.81;45.99
71621;BME280;59471;42.254;23.102;2023-02-13T13:50:11;97463.25;;;7.69;45.51
71621;BME280;59471;42.254;23.102;2023-02-13T13:53:13;97461.94;;;7.74;45.73
71621;BME280;59471;42.254;23.102;2023-02-13T14:01:24;97454.22;;;7.84;46.21
71621;BME280;59471;42.254;23.102;2023-02-13T14:06:26;97454.34;;;7.82;46.61
71621;BME280;59471;42.254;23.102;2023-02-13T14:11:51;97451.84;;;7.81;46.05
71621;BME280;59471;42.254;23.102;2023-02-13T14:16:53;97441.91;;;7.75;45.69
71621;BME280;59471;42.254;23.102;2023-02-13T14:19:40;97446.16;;;7.87;45.76
71621;BME280;59471;42.254;23.102;2023-02-13T14:24:54;97428.38;;;7.92;44.48
71621;BME280;59471;42.254;23.102;2023-02-13T14:27:23;97438.06;;;8.01;45.00
71621;BME280;59471;42.254;23.102;2023-02-13T14:29:50;97435.19;;;8.16;44.64
71621;BME280;59471;42.254;23.102;2023-02-13T14:34:50;97432.63;;;8.04;43.67
71621;BME280;59471;42.254;23.102;2023-02-13T14:37:21;97427.22;;;7.85;43.07
71621;BME280;59471;42.254;23.102;2023-02-13T14:40:27;97425.31;;;7.64;44.18
71621;BME280;59471;42.254;23.102;2023-02-13T14:51:37;97422.72;;;7.53;43.24
71621;BME280;59471;42.254;23.102;2023-02-13T14:57:21;97416.69;;;7.30;43.30
71621;BME280;59471;42.254;23.102;2023-02-13T14:59:54;97422.13;;;7.27;43.54
71621;BME280;59471;42.254;23.102;2023-02-13T15:02:33;97414.44;;;7.26;43.46
71621;BME280;59471;42.254;23.102;2023-02-13T15:05:09;97410.50;;;6.97;44.53
71621;BME280;59471;42.254;23.102;2023-02-13T15:07:51;97412.28;;;7.08;44.61
71621;BME280;59471;42.254;23.102;2023-02-13T15:10:50;97412.38;;;6.84;44.51
71621;BME280;59471;42.254;23.102;2023-02-13T15:13:23;97406.53;;;6.69;45.01
71621;BME280;59471;42.254;23.102;2023-02-13T15:15:55;97411.00;;;6.56;45.47
71621;BME280;59471;42.254;23.102;2023-02-13T15:18:50;97413.84;;;6.29;45.91
71621;BME280;59471;42.254;23.102;2023-02-13T15:21:22;97410.88;;;6.22;46.86
71621;BME280;59471;42.254;23.102;2023-02-13T15:23:57;97411.53;;;6.13;46.59
71621;BME280;59471;42.254;23.102;2023-02-13T15:26:24;97412.94;;;6.06;48.03
71621;BME280;59471;42.254;23.102;2023-02-13T15:29:20;97413.81;;;5.94;48.21
71621;BME280;59471;42.254;23.102;2023-02-13T15:31:46;97414.56;;;5.70;48.17
71621;BME280;59471;42.254;23.102;2023-02-13T15:36:57;97412.22;;;5.54;48.86
71621;BME280;59471;42.254;23.102;2023-02-13T15:39:27;97414.03;;;5.41;48.83
71621;BME280;59471;42.254;23.102;2023-02-13T15:41:56;97409.38;;;5.33;50.14
71621;BME280;59471;42.254;23.102;2023-02-13T15:44:36;97415.19;;;5.11;50.72
71621;BME280;59471;42.254;23.102;2023-02-13T15:49:54;97423.28;;;4.81;51.99
71621;BME280;59471;42.254;23.102;2023-02-13T15:52:35;97419.50;;;4.60;52.23
71621;BME280;59471;42.254;23.102;2023-02-13T15:55:02;97426.56;;;4.45;53.36
71621;BME280;59471;42.254;23.102;2023-02-13T15:57:28;97429.19;;;4.18;54.07